Airport View

Enter AWOS ICAO identifier for current METAR.

ex. KFNL

KISO 202250Z AUTO 00000KT 10SM CLR 25/20 A3020 RMK AO2 T02490203

20 Oct 2020 22:56

Frequency: 132.75

Phone: 252-522-2712

Other Area AWOS: KGSB - KGWW - KPGV - KDPL

TAF KISO 201745Z 2018/2118 VRB04KT P6SM SCT025 FM210000 00000KT P6SM BKN150 FM210300 00000KT P6SM OVC003 FM210800 00000KT 3SM BR OVC003 FM211500 05004KT P6SM SCT003 SCT025 AMD LTD TO CLD VIS AND WIND